sensor_id;sensor_type;location;lat;lon;timestamp;temperature;humidity
67502;SHT30;54349;52.528;19.760;2022-12-18T00:00:07;23.45;37.29
67502;SHT30;54349;52.528;19.760;2022-12-18T00:03:03;23.45;37.22
67502;SHT30;54349;52.528;19.760;2022-12-18T00:05:32;23.44;37.19
67502;SHT30;54349;52.528;19.760;2022-12-18T00:08:00;23.45;37.13
67502;SHT30;54349;52.528;19.760;2022-12-18T00:10:28;23.45;37.04
67502;SHT30;54349;52.528;19.760;2022-12-18T00:12:57;23.46;37.05
67502;SHT30;54349;52.528;19.760;2022-12-18T00:15:25;23.47;36.99
67502;SHT30;54349;52.528;19.760;2022-12-18T00:17:52;23.47;37.02
67502;SHT30;54349;52.528;19.760;2022-12-18T00:20:21;23.47;37.02
67502;SHT30;54349;52.528;19.760;2022-12-18T00:22:53;23.47;36.97
67502;SHT30;54349;52.528;19.760;2022-12-18T00:25:23;23.47;36.87
67502;SHT30;54349;52.528;19.760;2022-12-18T00:27:51;23.47;36.86
67502;SHT30;54349;52.528;19.760;2022-12-18T00:30:19;23.46;36.83
67502;SHT30;54349;52.528;19.760;2022-12-18T00:32:47;23.45;36.70
67502;SHT30;54349;52.528;19.760;2022-12-18T00:35:15;23.42;36.54
67502;SHT30;54349;52.528;19.760;2022-12-18T00:37:43;23.39;36.50
67502;SHT30;54349;52.528;19.760;2022-12-18T00:40:12;23.38;36.47
67502;SHT30;54349;52.528;19.760;2022-12-18T00:42:40;23.35;36.36
67502;SHT30;54349;52.528;19.760;2022-12-18T00:47:54;23.32;36.38
67502;SHT30;54349;52.528;19.760;2022-12-18T00:50:24;23.29;36.31
67502;SHT30;54349;52.528;19.760;2022-12-18T00:52:53;23.27;36.25
67502;SHT30;54349;52.528;19.760;2022-12-18T00:55:22;23.24;36.08
67502;SHT30;54349;52.528;19.760;2022-12-18T00:57:50;23.23;35.97
67502;SHT30;54349;52.528;19.760;2022-12-18T01:00:20;23.22;35.82
67502;SHT30;54349;52.528;19.760;2022-12-18T01:02:49;23.20;35.70
67502;SHT30;54349;52.528;19.760;2022-12-18T01:05:18;23.18;35.67
67502;SHT30;54349;52.528;19.760;2022-12-18T01:07:46;23.16;35.55
67502;SHT30;54349;52.528;19.760;2022-12-18T01:10:14;23.14;35.42
67502;SHT30;54349;52.528;19.760;2022-12-18T01:12:42;23.13;35.41
67502;SHT30;54349;52.528;19.760;2022-12-18T01:15:12;23.14;35.39
67502;SHT30;54349;52.528;19.760;2022-12-18T01:17:42;23.13;35.35
67502;SHT30;54349;52.528;19.760;2022-12-18T01:20:11;23.11;35.28
67502;SHT30;54349;52.528;19.760;2022-12-18T01:22:40;23.11;35.21
67502;SHT30;54349;52.528;19.760;2022-12-18T01:25:08;23.09;35.12
67502;SHT30;54349;52.528;19.760;2022-12-18T01:27:37;23.06;35.11
67502;SHT30;54349;52.528;19.760;2022-12-18T01:30:05;23.05;35.09
67502;SHT30;54349;52.528;19.760;2022-12-18T01:32:34;23.04;35.10
67502;SHT30;54349;52.528;19.760;2022-12-18T01:35:02;23.03;35.10
67502;SHT30;54349;52.528;19.760;2022-12-18T01:37:31;23.02;35.08
67502;SHT30;54349;52.528;19.760;2022-12-18T01:39:59;23.01;35.01
67502;SHT30;54349;52.528;19.760;2022-12-18T01:42:27;22.99;34.95
67502;SHT30;54349;52.528;19.760;2022-12-18T01:50:18;22.95;34.90
67502;SHT30;54349;52.528;19.760;2022-12-18T01:52:58;22.95;34.87
67502;SHT30;54349;52.528;19.760;2022-12-18T01:58:32;22.93;34.71
67502;SHT30;54349;52.528;19.760;2022-12-18T02:01:08;22.90;34.74
67502;SHT30;54349;52.528;19.760;2022-12-18T02:03:37;22.90;34.70
67502;SHT30;54349;52.528;19.760;2022-12-18T02:06:13;22.90;34.70
67502;SHT30;54349;52.528;19.760;2022-12-18T02:14:44;22.86;34.58
67502;SHT30;54349;52.528;19.760;2022-12-18T02:17:38;22.85;34.57
67502;SHT30;54349;52.528;19.760;2022-12-18T02:20:21;22.85;34.49
67502;SHT30;54349;52.528;19.760;2022-12-18T02:29:07;22.83;34.47
67502;SHT30;54349;52.528;19.760;2022-12-18T02:31:43;22.82;34.39
67502;SHT30;54349;52.528;19.760;2022-12-18T02:34:20;22.81;34.31
67502;SHT30;54349;52.528;19.760;2022-12-18T02:36:54;22.81;34.29
67502;SHT30;54349;52.528;19.760;2022-12-18T02:39:26;22.81;34.30
67502;SHT30;54349;52.528;19.760;2022-12-18T02:42:02;22.80;34.29
67502;SHT30;54349;52.528;19.760;2022-12-18T02:44:41;22.80;34.30
67502;SHT30;54349;52.528;19.760;2022-12-18T02:47:15;22.78;34.27
67502;SHT30;54349;52.528;19.760;2022-12-18T02:56:12;22.75;34.14
67502;SHT30;54349;52.528;19.760;2022-12-18T03:01:51;22.76;34.17
67502;SHT30;54349;52.528;19.760;2022-12-18T03:04:39;22.75;34.12
67502;SHT30;54349;52.528;19.760;2022-12-18T03:07:33;22.73;34.06
67502;SHT30;54349;52.528;19.760;2022-12-18T03:10:14;22.73;33.97
67502;SHT30;54349;52.528;19.760;2022-12-18T03:12:53;22.74;33.94
67502;SHT30;54349;52.528;19.760;2022-12-18T03:15:51;22.75;33.97
67502;SHT30;54349;52.528;19.760;2022-12-18T03:18:30;22.74;33.99
67502;SHT30;54349;52.528;19.760;2022-12-18T03:21:07;22.73;33.99
67502;SHT30;54349;52.528;19.760;2022-12-18T03:23:40;22.72;33.97
67502;SHT30;54349;52.528;19.760;2022-12-18T03:26:16;22.71;33.82
67502;SHT30;54349;52.528;19.760;2022-12-18T03:28:53;22.71;33.85
67502;SHT30;54349;52.528;19.760;2022-12-18T03:31:28;22.72;33.86
67502;SHT30;54349;52.528;19.760;2022-12-18T03:34:09;22.72;33.84
67502;SHT30;54349;52.528;19.760;2022-12-18T03:36:47;22.72;33.84
67502;SHT30;54349;52.528;19.760;2022-12-18T03:39:15;22.71;33.88
67502;SHT30;54349;52.528;19.760;2022-12-18T03:41:52;22.69;33.78
67502;SHT30;54349;52.528;19.760;2022-12-18T03:47:28;22.70;33.73
67502;SHT30;54349;52.528;19.760;2022-12-18T03:56:08;22.68;33.74
67502;SHT30;54349;52.528;19.760;2022-12-18T03:58:39;22.67;33.65
67502;SHT30;54349;52.528;19.760;2022-12-18T04:01:17;22.67;33.59
67502;SHT30;54349;52.528;19.760;2022-12-18T04:03:51;22.65;33.64
67502;SHT30;54349;52.528;19.760;2022-12-18T04:06:20;22.64;33.62
67502;SHT30;54349;52.528;19.760;2022-12-18T04:08:49;22.62;33.61
67502;SHT30;54349;52.528;19.760;2022-12-18T04:11:20;22.59;33.60
67502;SHT30;54349;52.528;19.760;2022-12-18T04:13:48;22.56;33.57
67502;SHT30;54349;52.528;19.760;2022-12-18T04:16:21;22.53;33.56
67502;SHT30;54349;52.528;19.760;2022-12-18T04:18:52;22.49;33.57
67502;SHT30;54349;52.528;19.760;2022-12-18T04:21:22;22.46;33.60
67502;SHT30;54349;52.528;19.760;2022-12-18T04:23:50;22.42;33.60
67502;SHT30;54349;52.528;19.760;2022-12-18T04:26:20;22.38;33.62
67502;SHT30;54349;52.528;19.760;2022-12-18T04:29:07;22.34;33.54
67502;SHT30;54349;52.528;19.760;2022-12-18T04:31:36;22.32;33.42
67502;SHT30;54349;52.528;19.760;2022-12-18T04:34:05;22.32;33.35
67502;SHT30;54349;52.528;19.760;2022-12-18T04:36:37;22.38;33.09
67502;SHT30;54349;52.528;19.760;2022-12-18T04:39:06;22.49;32.92
67502;SHT30;54349;52.528;19.760;2022-12-18T04:41:34;22.60;32.72
67502;SHT30;54349;52.528;19.760;2022-12-18T04:44:03;22.70;32.54
67502;SHT30;54349;52.528;19.760;2022-12-18T04:46:32;22.82;32.42
67502;SHT30;54349;52.528;19.760;2022-12-18T04:49:00;22.92;32.23
67502;SHT30;54349;52.528;19.760;2022-12-18T04:51:28;23.00;32.12
67502;SHT30;54349;52.528;19.760;2022-12-18T04:53:56;23.10;32.04
67502;SHT30;54349;52.528;19.760;2022-12-18T04:56:24;23.18;31.92
67502;SHT30;54349;52.528;19.760;2022-12-18T04:58:52;23.24;31.83
67502;SHT30;54349;52.528;19.760;2022-12-18T05:01:20;23.31;31.81
67502;SHT30;54349;52.528;19.760;2022-12-18T05:03:50;23.36;31.72
67502;SHT30;54349;52.528;19.760;2022-12-18T05:06:19;23.41;31.63
67502;SHT30;54349;52.528;19.760;2022-12-18T05:08:47;23.46;31.57
67502;SHT30;54349;52.528;19.760;2022-12-18T05:11:15;23.50;31.53
67502;SHT30;54349;52.528;19.760;2022-12-18T05:13:44;23.53;31.46
67502;SHT30;54349;52.528;19.760;2022-12-18T05:16:13;23.56;31.44
67502;SHT30;54349;52.528;19.760;2022-12-18T05:18:41;23.61;31.41
67502;SHT30;54349;52.528;19.760;2022-12-18T05:21:10;23.65;31.34
67502;SHT30;54349;52.528;19.760;2022-12-18T05:23:38;23.66;31.31
67502;SHT30;54349;52.528;19.760;2022-12-18T05:26:06;23.69;31.31
67502;SHT30;54349;52.528;19.760;2022-12-18T05:28:45;23.74;31.28
67502;SHT30;54349;52.528;19.760;2022-12-18T05:31:13;23.76;31.20
67502;SHT30;54349;52.528;19.760;2022-12-18T05:33:42;23.76;31.20
67502;SHT30;54349;52.528;19.760;2022-12-18T05:36:11;23.78;31.21
67502;SHT30;54349;52.528;19.760;2022-12-18T05:38:39;23.80;31.19
67502;SHT30;54349;52.528;19.760;2022-12-18T05:41:08;23.80;31.14
67502;SHT30;54349;52.528;19.760;2022-12-18T05:43:37;23.80;31.19
67502;SHT30;54349;52.528;19.760;2022-12-18T05:46:10;23.81;31.20
67502;SHT30;54349;52.528;19.760;2022-12-18T05:48:42;23.79;31.20
67502;SHT30;54349;52.528;19.760;2022-12-18T05:51:13;23.76;31.25
67502;SHT30;54349;52.528;19.760;2022-12-18T05:53:44;23.76;31.27
67502;SHT30;54349;52.528;19.760;2022-12-18T05:56:15;23.79;31.26
67502;SHT30;54349;52.528;19.760;2022-12-18T05:58:47;23.77;31.24
67502;SHT30;54349;52.528;19.760;2022-12-18T06:01:21;23.74;31.24
67502;SHT30;54349;52.528;19.760;2022-12-18T06:03:52;23.74;31.30
67502;SHT30;54349;52.528;19.760;2022-12-18T06:06:23;23.72;31.28
67502;SHT30;54349;52.528;19.760;2022-12-18T06:08:54;23.68;31.33
67502;SHT30;54349;52.528;19.760;2022-12-18T06:11:24;23.64;31.41
67502;SHT30;54349;52.528;19.760;2022-12-18T06:13:55;23.59;31.41
67502;SHT30;54349;52.528;19.760;2022-12-18T06:16:26;23.58;31.48
67502;SHT30;54349;52.528;19.760;2022-12-18T06:18:57;23.55;31.43
67502;SHT30;54349;52.528;19.760;2022-12-18T06:21:28;23.55;31.44
67502;SHT30;54349;52.528;19.760;2022-12-18T06:23:59;23.54;31.46
67502;SHT30;54349;52.528;19.760;2022-12-18T06:26:28;23.51;31.53
67502;SHT30;54349;52.528;19.760;2022-12-18T06:28:56;23.47;31.56
67502;SHT30;54349;52.528;19.760;2022-12-18T06:31:25;23.47;31.51
67502;SHT30;54349;52.528;19.760;2022-12-18T06:33:54;23.46;31.57
67502;SHT30;54349;52.528;19.760;2022-12-18T06:36:21;23.41;31.64
67502;SHT30;54349;52.528;19.760;2022-12-18T06:38:50;23.39;31.59
67502;SHT30;54349;52.528;19.760;2022-12-18T06:41:19;23.39;31.53
67502;SHT30;54349;52.528;19.760;2022-12-18T06:43:49;23.37;31.59
67502;SHT30;54349;52.528;19.760;2022-12-18T06:46:21;23.35;31.59
67502;SHT30;54349;52.528;19.760;2022-12-18T06:48:49;23.35;31.51
67502;SHT30;54349;52.528;19.760;2022-12-18T06:51:22;23.37;31.57
67502;SHT30;54349;52.528;19.760;2022-12-18T06:53:51;23.33;31.56
67502;SHT30;54349;52.528;19.760;2022-12-18T06:56:19;23.35;31.55
67502;SHT30;54349;52.528;19.760;2022-12-18T06:58:51;23.34;31.56
67502;SHT30;54349;52.528;19.760;2022-12-18T07:01:20;23.33;31.63
67502;SHT30;54349;52.528;19.760;2022-12-18T07:03:52;23.33;31.53
67502;SHT30;54349;52.528;19.760;2022-12-18T07:06:24;23.35;31.53
67502;SHT30;54349;52.528;19.760;2022-12-18T07:08:55;23.34;31.51
67502;SHT30;54349;52.528;19.760;2022-12-18T07:11:24;23.31;31.51
67502;SHT30;54349;52.528;19.760;2022-12-18T07:13:52;23.33;31.68
67502;SHT30;54349;52.528;19.760;2022-12-18T07:16:21;23.34;31.93
67502;SHT30;54349;52.528;19.760;2022-12-18T07:18:52;23.33;32.11
67502;SHT30;54349;52.528;19.760;2022-12-18T07:21:23;23.32;32.29
67502;SHT30;54349;52.528;19.760;2022-12-18T07:23:53;23.31;32.50
67502;SHT30;54349;52.528;19.760;2022-12-18T07:26:21;23.28;32.66
67502;SHT30;54349;52.528;19.760;2022-12-18T07:28:50;23.29;32.75
67502;SHT30;54349;52.528;19.760;2022-12-18T07:31:24;23.31;32.61
67502;SHT30;54349;52.528;19.760;2022-12-18T07:33:54;23.29;32.66
67502;SHT30;54349;52.528;19.760;2022-12-18T07:36:22;23.30;32.44
67502;SHT30;54349;52.528;19.760;2022-12-18T07:38:51;23.31;32.35
67502;SHT30;54349;52.528;19.760;2022-12-18T07:41:22;23.30;32.35
67502;SHT30;54349;52.528;19.760;2022-12-18T07:43:50;23.30;32.22
67502;SHT30;54349;52.528;19.760;2022-12-18T07:46:20;23.31;32.14
67502;SHT30;54349;52.528;19.760;2022-12-18T07:48:48;23.29;32.16
67502;SHT30;54349;52.528;19.760;2022-12-18T07:51:17;23.27;32.07
67502;SHT30;54349;52.528;19.760;2022-12-18T07:53:46;23.27;32.01
67502;SHT30;54349;52.528;19.760;2022-12-18T07:56:19;23.26;32.01
67502;SHT30;54349;52.528;19.760;2022-12-18T07:58:54;23.26;31.95
67502;SHT30;54349;52.528;19.760;2022-12-18T08:01:24;23.28;31.91
67502;SHT30;54349;52.528;19.760;2022-12-18T08:03:53;23.29;31.86
67502;SHT30;54349;52.528;19.760;2022-12-18T08:06:22;23.28;31.80
67502;SHT30;54349;52.528;19.760;2022-12-18T08:08:54;23.31;31.75
67502;SHT30;54349;52.528;19.760;2022-12-18T08:11:24;23.33;31.63
67502;SHT30;54349;52.528;19.760;2022-12-18T08:13:55;23.36;31.61
67502;SHT30;54349;52.528;19.760;2022-12-18T08:16:24;23.38;31.54
67502;SHT30;54349;52.528;19.760;2022-12-18T08:18:53;23.40;31.42
67502;SHT30;54349;52.528;19.760;2022-12-18T08:21:26;23.41;31.34
67502;SHT30;54349;52.528;19.760;2022-12-18T08:23:59;23.39;31.28
67502;SHT30;54349;52.528;19.760;2022-12-18T08:26:29;23.39;31.22
67502;SHT30;54349;52.528;19.760;2022-12-18T08:28:59;23.41;31.09
67502;SHT30;54349;52.528;19.760;2022-12-18T08:31:29;23.42;31.02
67502;SHT30;54349;52.528;19.760;2022-12-18T08:33:58;23.42;30.97
67502;SHT30;54349;52.528;19.760;2022-12-18T08:36:26;23.44;30.87
67502;SHT30;54349;52.528;19.760;2022-12-18T08:38:54;23.44;30.91
67502;SHT30;54349;52.528;19.760;2022-12-18T08:41:25;23.43;30.78
67502;SHT30;54349;52.528;19.760;2022-12-18T08:43:53;23.46;30.78
67502;SHT30;54349;52.528;19.760;2022-12-18T08:46:41;23.48;30.70
67502;SHT30;54349;52.528;19.760;2022-12-18T08:49:11;23.48;30.66
67502;SHT30;54349;52.528;19.760;2022-12-18T08:51:40;23.49;30.66
67502;SHT30;54349;52.528;19.760;2022-12-18T08:54:09;23.49;30.59
67502;SHT30;54349;52.528;19.760;2022-12-18T08:56:41;23.50;30.59
67502;SHT30;54349;52.528;19.760;2022-12-18T08:59:09;23.50;30.56
67502;SHT30;54349;52.528;19.760;2022-12-18T09:01:45;23.52;30.54
67502;SHT30;54349;52.528;19.760;2022-12-18T09:04:15;23.51;30.54
67502;SHT30;54349;52.528;19.760;2022-12-18T09:06:43;23.50;30.52
67502;SHT30;54349;52.528;19.760;2022-12-18T09:09:11;23.53;30.49
67502;SHT30;54349;52.528;19.760;2022-12-18T09:11:39;23.53;30.50
67502;SHT30;54349;52.528;19.760;2022-12-18T09:14:08;23.52;30.50
67502;SHT30;54349;52.528;19.760;2022-12-18T09:16:37;23.54;30.46
67502;SHT30;54349;52.528;19.760;2022-12-18T09:19:05;23.56;30.42
67502;SHT30;54349;52.528;19.760;2022-12-18T09:21:34;23.55;30.40
67502;SHT30;54349;52.528;19.760;2022-12-18T09:24:11;23.54;30.37
67502;SHT30;54349;52.528;19.760;2022-12-18T09:26:41;23.54;30.46
67502;SHT30;54349;52.528;19.760;2022-12-18T09:29:14;23.50;30.49
67502;SHT30;54349;52.528;19.760;2022-12-18T09:31:45;23.51;30.50
67502;SHT30;54349;52.528;19.760;2022-12-18T09:34:15;23.53;30.50
67502;SHT30;54349;52.528;19.760;2022-12-18T09:36:44;23.51;30.53
67502;SHT30;54349;52.528;19.760;2022-12-18T09:39:14;23.54;30.56
67502;SHT30;54349;52.528;19.760;2022-12-18T09:41:45;23.58;30.49
67502;SHT30;54349;52.528;19.760;2022-12-18T09:44:39;23.58;30.53
67502;SHT30;54349;52.528;19.760;2022-12-18T09:49:55;23.56;30.59
67502;SHT30;54349;52.528;19.760;2022-12-18T09:52:39;23.57;30.58
67502;SHT30;54349;52.528;19.760;2022-12-18T09:55:30;23.54;30.58
67502;SHT30;54349;52.528;19.760;2022-12-18T09:58:18;23.56;30.61
67502;SHT30;54349;52.528;19.760;2022-12-18T10:01:26;23.58;30.59
67502;SHT30;54349;52.528;19.760;2022-12-18T10:04:09;23.58;30.63
67502;SHT30;54349;52.528;19.760;2022-12-18T10:06:40;23.58;30.61
67502;SHT30;54349;52.528;19.760;2022-12-18T10:14:35;23.53;30.67
67502;SHT30;54349;52.528;19.760;2022-12-18T10:20:38;23.51;30.66
67502;SHT30;54349;52.528;19.760;2022-12-18T10:23:29;23.51;30.68
67502;SHT30;54349;52.528;19.760;2022-12-18T10:26:19;23.50;30.67
67502;SHT30;54349;52.528;19.760;2022-12-18T10:28:48;23.48;30.72
67502;SHT30;54349;52.528;19.760;2022-12-18T10:31:19;23.48;30.71
67502;SHT30;54349;52.528;19.760;2022-12-18T10:33:53;23.48;31.06
67502;SHT30;54349;52.528;19.760;2022-12-18T10:36:23;23.44;31.04
67502;SHT30;54349;52.528;19.760;2022-12-18T10:38:52;23.41;31.03
67502;SHT30;54349;52.528;19.760;2022-12-18T10:46:46;23.33;30.89
67502;SHT30;54349;52.528;19.760;2022-12-18T10:49:22;23.35;30.82
67502;SHT30;54349;52.528;19.760;2022-12-18T10:55:00;23.40;30.78
67502;SHT30;54349;52.528;19.760;2022-12-18T11:00:28;23.43;30.67
67502;SHT30;54349;52.528;19.760;2022-12-18T11:02:58;23.47;30.69
67502;SHT30;54349;52.528;19.760;2022-12-18T11:08:01;23.50;30.75
67502;SHT30;54349;52.528;19.760;2022-12-18T11:10:30;23.50;30.77
67502;SHT30;54349;52.528;19.760;2022-12-18T11:13:12;23.54;30.74
67502;SHT30;54349;52.528;19.760;2022-12-18T11:15:47;23.57;30.72
67502;SHT30;54349;52.528;19.760;2022-12-18T11:18:17;23.55;30.90
67502;SHT30;54349;52.528;19.760;2022-12-18T11:20:59;23.55;30.84
67502;SHT30;54349;52.528;19.760;2022-12-18T11:23:50;23.56;31.14
67502;SHT30;54349;52.528;19.760;2022-12-18T11:26:20;23.53;32.42
67502;SHT30;54349;52.528;19.760;2022-12-18T11:29:08;23.51;33.72
67502;SHT30;54349;52.528;19.760;2022-12-18T11:31:44;23.50;34.42
67502;SHT30;54349;52.528;19.760;2022-12-18T11:36:57;23.52;35.32
67502;SHT30;54349;52.528;19.760;2022-12-18T11:44:57;23.50;36.68
67502;SHT30;54349;52.528;19.760;2022-12-18T11:47:40;23.50;36.34
67502;SHT30;54349;52.528;19.760;2022-12-18T11:50:24;23.50;35.94
67502;SHT30;54349;52.528;19.760;2022-12-18T11:52:59;23.51;35.63
67502;SHT30;54349;52.528;19.760;2022-12-18T12:01:59;23.51;34.95
67502;SHT30;54349;52.528;19.760;2022-12-18T12:07:24;23.53;34.55
67502;SHT30;54349;52.528;19.760;2022-12-18T12:21:22;23.50;34.05
67502;SHT30;54349;52.528;19.760;2022-12-18T12:35:36;23.43;34.20
67502;SHT30;54349;52.528;19.760;2022-12-18T12:38:16;23.41;34.14
67502;SHT30;54349;52.528;19.760;2022-12-18T12:40:54;23.39;33.97
67502;SHT30;54349;52.528;19.760;2022-12-18T12:43:35;23.38;33.83
67502;SHT30;54349;52.528;19.760;2022-12-18T12:46:18;23.35;33.71
67502;SHT30;54349;52.528;19.760;2022-12-18T12:48:54;23.33;33.55
67502;SHT30;54349;52.528;19.760;2022-12-18T12:51:27;23.31;33.50
67502;SHT30;54349;52.528;19.760;2022-12-18T12:54:01;23.29;33.41
67502;SHT30;54349;52.528;19.760;2022-12-18T12:56:41;23.27;33.32
67502;SHT30;54349;52.528;19.760;2022-12-18T13:02:20;23.24;33.14
67502;SHT30;54349;52.528;19.760;2022-12-18T13:05:08;23.20;33.05
67502;SHT30;54349;52.528;19.760;2022-12-18T13:07:54;23.18;32.95
67502;SHT30;54349;52.528;19.760;2022-12-18T13:10:50;23.12;32.89
67502;SHT30;54349;52.528;19.760;2022-12-18T13:13:47;23.08;32.84
67502;SHT30;54349;52.528;19.760;2022-12-18T13:16:22;23.03;32.87
67502;SHT30;54349;52.528;19.760;2022-12-18T13:18:53;22.99;32.87
67502;SHT30;54349;52.528;19.760;2022-12-18T13:21:27;22.95;32.90
67502;SHT30;54349;52.528;19.760;2022-12-18T13:24:14;22.90;32.90
67502;SHT30;54349;52.528;19.760;2022-12-18T13:26:57;22.88;32.91
67502;SHT30;54349;52.528;19.760;2022-12-18T13:32:23;22.91;32.91
67502;SHT30;54349;52.528;19.760;2022-12-18T13:37:53;22.96;32.70
67502;SHT30;54349;52.528;19.760;2022-12-18T13:51:46;23.31;31.78
67502;SHT30;54349;52.528;19.760;2022-12-18T13:54:27;23.39;31.63
67502;SHT30;54349;52.528;19.760;2022-12-18T13:57:03;23.44;31.50
67502;SHT30;54349;52.528;19.760;2022-12-18T13:59:34;23.50;31.39
67502;SHT30;54349;52.528;19.760;2022-12-18T14:02:11;23.56;31.27
67502;SHT30;54349;52.528;19.760;2022-12-18T14:04:45;23.59;31.25
67502;SHT30;54349;52.528;19.760;2022-12-18T14:07:16;23.60;31.20
67502;SHT30;54349;52.528;19.760;2022-12-18T14:09:50;23.63;31.11
67502;SHT30;54349;52.528;19.760;2022-12-18T14:12:47;23.64;31.24
67502;SHT30;54349;52.528;19.760;2022-12-18T14:15:33;23.63;31.19
67502;SHT30;54349;52.528;19.760;2022-12-18T14:21:00;23.63;31.11
67502;SHT30;54349;52.528;19.760;2022-12-18T14:26:22;23.59;31.23
67502;SHT30;54349;52.528;19.760;2022-12-18T14:28:59;23.57;31.30
67502;SHT30;54349;52.528;19.760;2022-12-18T14:31:46;23.55;31.26
67502;SHT30;54349;52.528;19.760;2022-12-18T14:34:53;23.52;31.30
67502;SHT30;54349;52.528;19.760;2022-12-18T14:37:23;23.51;31.29
67502;SHT30;54349;52.528;19.760;2022-12-18T14:40:01;23.50;31.32
67502;SHT30;54349;52.528;19.760;2022-12-18T14:42:38;23.47;31.33
67502;SHT30;54349;52.528;19.760;2022-12-18T14:48:17;23.45;31.35
67502;SHT30;54349;52.528;19.760;2022-12-18T14:50:55;23.44;31.40
67502;SHT30;54349;52.528;19.760;2022-12-18T14:53:34;23.43;31.43
67502;SHT30;54349;52.528;19.760;2022-12-18T14:58:59;23.39;31.49
67502;SHT30;54349;52.528;19.760;2022-12-18T15:01:37;23.37;31.53
67502;SHT30;54349;52.528;19.760;2022-12-18T15:04:34;23.35;31.54
67502;SHT30;54349;52.528;19.760;2022-12-18T15:07:21;23.33;31.56
67502;SHT30;54349;52.528;19.760;2022-12-18T15:12:49;23.30;31.55
67502;SHT30;54349;52.528;19.760;2022-12-18T15:18:14;23.27;31.56
67502;SHT30;54349;52.528;19.760;2022-12-18T15:23:45;23.24;31.57
67502;SHT30;54349;52.528;19.760;2022-12-18T15:26:17;23.22;31.54
67502;SHT30;54349;52.528;19.760;2022-12-18T15:28:49;23.19;31.57
67502;SHT30;54349;52.528;19.760;2022-12-18T15:36:35;23.14;31.59
67502;SHT30;54349;52.528;19.760;2022-12-18T15:39:04;23.13;31.66
67502;SHT30;54349;52.528;19.760;2022-12-18T15:41:33;23.11;31.76
67502;SHT30;54349;52.528;19.760;2022-12-18T15:44:23;23.10;31.80
67502;SHT30;54349;52.528;19.760;2022-12-18T15:46:53;23.10;31.88
67502;SHT30;54349;52.528;19.760;2022-12-18T15:49:24;23.09;31.87
67502;SHT30;54349;52.528;19.760;2022-12-18T15:51:53;23.10;31.81
67502;SHT30;54349;52.528;19.760;2022-12-18T15:54:26;23.10;31.79
67502;SHT30;54349;52.528;19.760;2022-12-18T15:57:13;23.11;31.75
67502;SHT30;54349;52.528;19.760;2022-12-18T15:59:51;23.11;31.69
67502;SHT30;54349;52.528;19.760;2022-12-18T16:02:22;23.12;31.68
67502;SHT30;54349;52.528;19.760;2022-12-18T16:04:52;23.13;31.69
67502;SHT30;54349;52.528;19.760;2022-12-18T16:07:21;23.14;31.70
67502;SHT30;54349;52.528;19.760;2022-12-18T16:09:52;23.14;31.70
67502;SHT30;54349;52.528;19.760;2022-12-18T16:12:22;23.13;31.69
67502;SHT30;54349;52.528;19.760;2022-12-18T16:14:52;23.14;31.67
67502;SHT30;54349;52.528;19.760;2022-12-18T16:17:21;23.13;31.67
67502;SHT30;54349;52.528;19.760;2022-12-18T16:19:49;23.13;31.68
67502;SHT30;54349;52.528;19.760;2022-12-18T16:22:24;23.14;31.62
67502;SHT30;54349;52.528;19.760;2022-12-18T16:24:56;23.15;31.67
67502;SHT30;54349;52.528;19.760;2022-12-18T16:27:25;23.13;31.64
67502;SHT30;54349;52.528;19.760;2022-12-18T16:29:55;23.14;31.62
67502;SHT30;54349;52.528;19.760;2022-12-18T16:32:23;23.14;31.60
67502;SHT30;54349;52.528;19.760;2022-12-18T16:34:51;23.14;31.57
67502;SHT30;54349;52.528;19.760;2022-12-18T16:37:20;23.13;31.58
67502;SHT30;54349;52.528;19.760;2022-12-18T16:39:48;23.14;31.52
67502;SHT30;54349;52.528;19.760;2022-12-18T16:42:17;23.14;31.52
67502;SHT30;54349;52.528;19.760;2022-12-18T16:44:48;23.13;31.51
67502;SHT30;54349;52.528;19.760;2022-12-18T16:47:17;23.13;31.48
67502;SHT30;54349;52.528;19.760;2022-12-18T16:49:46;23.13;31.61
67502;SHT30;54349;52.528;19.760;2022-12-18T16:52:18;23.13;32.56
67502;SHT30;54349;52.528;19.760;2022-12-18T16:54:47;23.12;33.31
67502;SHT30;54349;52.528;19.760;2022-12-18T16:57:17;23.10;33.80
67502;SHT30;54349;52.528;19.760;2022-12-18T16:59:51;23.09;34.08
67502;SHT30;54349;52.528;19.760;2022-12-18T17:02:21;23.09;34.29
67502;SHT30;54349;52.528;19.760;2022-12-18T17:04:55;23.09;34.39
67502;SHT30;54349;52.528;19.760;2022-12-18T17:07:25;23.12;34.43
67502;SHT30;54349;52.528;19.760;2022-12-18T17:09:55;23.14;34.50
67502;SHT30;54349;52.528;19.760;2022-12-18T17:12:23;23.16;34.63
67502;SHT30;54349;52.528;19.760;2022-12-18T17:14:53;23.20;34.71
67502;SHT30;54349;52.528;19.760;2022-12-18T17:17:21;23.26;34.65
67502;SHT30;54349;52.528;19.760;2022-12-18T17:19:50;23.31;34.69
67502;SHT30;54349;52.528;19.760;2022-12-18T17:22:20;23.35;34.78
67502;SHT30;54349;52.528;19.760;2022-12-18T17:24:50;23.40;34.74
67502;SHT30;54349;52.528;19.760;2022-12-18T17:27:18;23.44;34.70
67502;SHT30;54349;52.528;19.760;2022-12-18T17:29:46;23.47;34.78
67502;SHT30;54349;52.528;19.760;2022-12-18T17:32:16;23.50;34.83
67502;SHT30;54349;52.528;19.760;2022-12-18T17:34:44;23.53;34.87
67502;SHT30;54349;52.528;19.760;2022-12-18T17:37:13;23.54;35.05
67502;SHT30;54349;52.528;19.760;2022-12-18T17:39:42;23.57;35.26
67502;SHT30;54349;52.528;19.760;2022-12-18T17:42:11;23.58;35.32
67502;SHT30;54349;52.528;19.760;2022-12-18T17:44:42;23.59;35.42
67502;SHT30;54349;52.528;19.760;2022-12-18T17:47:12;23.62;35.55
67502;SHT30;54349;52.528;19.760;2022-12-18T17:49:40;23.64;35.65
67502;SHT30;54349;52.528;19.760;2022-12-18T17:52:08;23.66;35.67
67502;SHT30;54349;52.528;19.760;2022-12-18T17:54:37;23.67;35.75
67502;SHT30;54349;52.528;19.760;2022-12-18T17:57:08;23.68;35.81
67502;SHT30;54349;52.528;19.760;2022-12-18T17:59:37;23.69;35.79
67502;SHT30;54349;52.528;19.760;2022-12-18T18:02:05;23.69;35.83
67502;SHT30;54349;52.528;19.760;2022-12-18T18:04:35;23.68;35.93
67502;SHT30;54349;52.528;19.760;2022-12-18T18:07:03;23.69;35.97
67502;SHT30;54349;52.528;19.760;2022-12-18T18:09:31;23.68;36.16
67502;SHT30;54349;52.528;19.760;2022-12-18T18:11:59;23.64;36.48
67502;SHT30;54349;52.528;19.760;2022-12-18T18:14:46;23.62;36.50
67502;SHT30;54349;52.528;19.760;2022-12-18T18:17:14;23.60;36.51
67502;SHT30;54349;52.528;19.760;2022-12-18T18:19:42;23.59;36.65
67502;SHT30;54349;52.528;19.760;2022-12-18T18:22:16;23.57;36.61